createdAt,value
2023-10-16T00:01:20.888Z,101030.06
2023-10-16T00:03:49.427Z,101036.00
2023-10-16T00:06:16.039Z,101039.31
2023-10-16T00:08:50.163Z,101036.63
2023-10-16T00:11:19.594Z,101041.59
2023-10-16T00:13:51.395Z,101038.97
2023-10-16T00:16:20.155Z,101029.72
2023-10-16T00:18:47.362Z,101029.56
2023-10-16T00:21:14.790Z,101036.56
2023-10-16T00:23:42.533Z,101034.09
2023-10-16T00:26:17.200Z,101034.16
2023-10-16T00:28:46.954Z,101030.97
2023-10-16T00:31:22.020Z,101037.78
2023-10-16T00:33:50.643Z,101033.97
2023-10-16T00:36:17.275Z,101035.84
2023-10-16T00:38:49.577Z,101034.16
2023-10-16T00:41:16.180Z,101036.41
2023-10-16T00:43:45.011Z,101034.81
2023-10-16T00:46:19.674Z,101037.97
2023-10-16T00:48:48.019Z,101036.00
2023-10-16T00:51:16.813Z,101025.47
2023-10-16T00:53:48.546Z,101033.88
2023-10-16T00:56:15.132Z,101031.53
2023-10-16T00:58:43.654Z,101033.09
2023-10-16T01:01:16.408Z,101027.19
2023-10-16T01:03:46.062Z,101023.59
2023-10-16T01:06:22.385Z,101018.22
2023-10-16T01:08:52.981Z,101017.63
2023-10-16T01:11:20.268Z,101013.34
2023-10-16T01:13:52.091Z,101014.50
2023-10-16T01:16:19.848Z,101007.50
2023-10-16T01:18:47.090Z,100998.50
2023-10-16T01:21:18.375Z,100993.94
2023-10-16T01:23:45.648Z,101005.31
2023-10-16T01:26:14.993Z,101005.41
2023-10-16T01:28:42.216Z,101006.00
2023-10-16T01:31:08.753Z,101004.50
2023-10-16T01:33:35.649Z,101000.72
2023-10-16T01:36:06.096Z,100997.44
2023-10-16T01:38:33.048Z,101005.28
2023-10-16T01:41:02.897Z,101007.13
2023-10-16T01:43:30.484Z,101012.41
2023-10-16T01:46:02.187Z,101003.63
2023-10-16T01:48:31.723Z,100993.06
2023-10-16T01:50:58.265Z,100995.03
2023-10-16T01:53:27.632Z,100999.63
2023-10-16T01:55:57.612Z,101002.94
2023-10-16T01:58:31.727Z,101006.50
2023-10-16T02:00:58.252Z,101000.13
2023-10-16T02:03:27.533Z,100998.97
2023-10-16T02:05:54.276Z,100989.78
2023-10-16T02:08:21.756Z,100984.34
2023-10-16T02:10:51.904Z,100990.91
2023-10-16T02:13:18.280Z,100986.78
2023-10-16T02:15:44.943Z,100992.25
2023-10-16T02:18:19.808Z,100979.44
2023-10-16T02:20:46.679Z,100967.47
2023-10-16T02:23:13.587Z,100976.31
2023-10-16T02:25:40.042Z,100977.97
2023-10-16T02:28:08.859Z,100974.59
2023-10-16T02:30:39.782Z,100976.25
2023-10-16T02:33:16.907Z,100968.56
2023-10-16T02:35:44.031Z,100969.78
2023-10-16T02:38:14.976Z,100974.94
2023-10-16T02:40:45.839Z,100979.22
2023-10-16T02:43:15.168Z,100974.16
2023-10-16T02:45:48.079Z,100972.31
2023-10-16T02:48:17.809Z,100974.03
2023-10-16T02:50:50.915Z,100970.38
2023-10-16T02:53:22.736Z,100971.53
2023-10-16T02:55:51.125Z,100974.88
2023-10-16T02:58:17.734Z,100981.28
2023-10-16T03:00:51.120Z,100983.03
2023-10-16T03:03:18.651Z,100983.28
2023-10-16T03:05:46.347Z,100976.41
2023-10-16T03:08:14.764Z,100977.19
2023-10-16T03:10:41.455Z,100979.38
2023-10-16T03:13:07.926Z,100982.84
2023-10-16T03:15:42.984Z,100976.47
2023-10-16T03:18:17.791Z,100972.13
2023-10-16T03:20:46.338Z,100980.94
2023-10-16T03:23:14.337Z,100980.94
2023-10-16T03:25:44.718Z,100975.47
2023-10-16T03:28:12.591Z,100960.31
2023-10-16T03:30:41.111Z,100955.91
2023-10-16T03:33:08.819Z,100970.09
2023-10-16T03:35:39.238Z,100974.56
2023-10-16T03:38:25.328Z,100976.34
2023-10-16T03:40:52.383Z,100971.16
2023-10-16T03:43:20.659Z,100972.81
2023-10-16T03:45:47.637Z,100972.53
2023-10-16T03:48:16.211Z,100977.66
2023-10-16T03:50:43.966Z,100980.44
2023-10-16T03:53:14.252Z,100983.09
2023-10-16T03:55:51.007Z,100978.59
2023-10-16T03:58:20.056Z,100974.84
2023-10-16T04:00:54.316Z,100975.50
2023-10-16T04:03:23.104Z,100974.69
2023-10-16T04:05:51.580Z,100972.81
2023-10-16T04:08:19.934Z,100962.47
2023-10-16T04:10:48.068Z,100960.75
2023-10-16T04:13:15.868Z,100953.06
2023-10-16T04:15:48.649Z,100960.34
2023-10-16T04:18:27.952Z,100963.47
2023-10-16T04:21:22.413Z,100958.28
2023-10-16T04:23:48.878Z,100958.66
2023-10-16T04:26:39.192Z,100959.59
2023-10-16T04:29:11.477Z,100962.56
2023-10-16T04:31:46.172Z,100959.88
2023-10-16T04:34:26.557Z,100958.44
2023-10-16T04:37:18.115Z,100964.50
2023-10-16T04:39:58.499Z,100958.16
2023-10-16T04:42:48.258Z,100962.50
2023-10-16T04:45:16.777Z,100959.78
2023-10-16T04:47:54.752Z,100967.66
2023-10-16T04:53:15.155Z,100952.03
2023-10-16T04:55:42.484Z,100955.72
2023-10-16T04:58:20.023Z,100954.16
2023-10-16T05:00:58.121Z,100953.19
2023-10-16T05:03:39.628Z,100969.00
2023-10-16T05:06:27.664Z,100950.50
2023-10-16T05:09:00.921Z,100956.84
2023-10-16T05:11:57.317Z,100948.03
2023-10-16T05:14:42.984Z,100953.34
2023-10-16T05:17:28.359Z,100944.00
2023-10-16T05:19:54.886Z,100936.84
2023-10-16T05:22:40.165Z,100933.28
2023-10-16T05:25:25.418Z,100936.53
2023-10-16T05:28:10.420Z,100933.06
2023-10-16T05:30:55.123Z,100928.88
2023-10-16T05:33:39.895Z,100924.38
2023-10-16T05:36:25.276Z,100928.75
2023-10-16T05:39:10.078Z,100933.28
2023-10-16T05:41:54.860Z,100934.09
2023-10-16T05:44:39.567Z,100934.22
2023-10-16T05:47:24.446Z,100936.81
2023-10-16T05:50:09.130Z,100941.38
2023-10-16T05:52:53.969Z,100950.25
2023-10-16T05:55:38.692Z,100946.59
2023-10-16T05:58:23.505Z,100940.16
2023-10-16T06:01:08.392Z,100931.47
2023-10-16T06:03:53.628Z,100936.34
2023-10-16T06:06:38.977Z,100934.78
2023-10-16T06:09:23.831Z,100935.63
2023-10-16T06:12:09.273Z,100938.31
2023-10-16T06:14:36.245Z,100938.84
2023-10-16T06:17:14.216Z,100946.59
2023-10-16T06:19:44.442Z,100944.03
2023-10-16T06:22:12.134Z,100941.31
2023-10-16T06:24:49.013Z,100940.63
2023-10-16T06:27:25.681Z,100940.66
2023-10-16T06:29:52.504Z,100950.91
2023-10-16T06:32:24.193Z,100956.38
2023-10-16T06:35:12.822Z,100961.94
2023-10-16T06:37:39.637Z,100953.69
2023-10-16T06:40:16.961Z,100960.59
2023-10-16T06:42:46.576Z,100968.41
2023-10-16T06:45:41.602Z,100974.59
2023-10-16T06:48:21.551Z,100968.66
2023-10-16T06:51:04.761Z,100957.38
2023-10-16T06:53:31.443Z,100972.25
2023-10-16T06:55:57.864Z,100970.69
2023-10-16T06:58:24.358Z,100968.97
2023-10-16T07:00:53.370Z,100973.31
2023-10-16T07:03:21.821Z,100971.72
2023-10-16T07:05:49.342Z,100967.22
2023-10-16T07:08:19.663Z,100976.97
2023-10-16T07:10:50.587Z,100978.00
2023-10-16T07:13:27.853Z,100973.00
2023-10-16T07:16:06.077Z,100961.59
2023-10-16T07:18:35.277Z,100965.22
2023-10-16T07:21:03.297Z,100978.50
2023-10-16T07:23:31.324Z,100980.50
2023-10-16T07:25:59.415Z,100978.78
2023-10-16T07:28:27.486Z,100981.63
2023-10-16T07:30:57.951Z,100976.28
2023-10-16T07:33:24.949Z,100977.34
2023-10-16T07:35:53.008Z,100985.38
2023-10-16T07:38:23.878Z,100989.00
2023-10-16T07:40:54.016Z,100981.28
2023-10-16T07:43:29.074Z,100981.13
2023-10-16T07:46:29.668Z,100990.00
2023-10-16T07:48:58.139Z,100981.22
2023-10-16T07:51:28.526Z,100977.75
2023-10-16T07:53:58.043Z,100983.03
2023-10-16T07:56:24.711Z,100983.94
2023-10-16T07:59:07.347Z,100983.94
2023-10-16T08:01:43.905Z,100974.31
2023-10-16T08:04:29.790Z,100968.22
2023-10-16T08:07:05.252Z,100974.41
2023-10-16T08:09:38.763Z,100973.53
2023-10-16T08:12:19.698Z,100975.31
2023-10-16T08:14:52.255Z,100971.84
2023-10-16T08:17:19.084Z,100971.00
2023-10-16T08:19:46.886Z,100969.22
2023-10-16T08:22:15.042Z,100969.25
2023-10-16T08:24:58.904Z,100965.75
2023-10-16T08:27:38.730Z,100963.06
2023-10-16T08:30:32.101Z,100969.25
2023-10-16T08:33:07.518Z,100968.38
2023-10-16T08:35:40.801Z,100963.97
2023-10-16T08:38:26.874Z,100958.69
2023-10-16T08:41:07.645Z,100963.94
2023-10-16T08:43:53.040Z,100961.13
2023-10-16T08:46:20.081Z,100969.97
2023-10-16T08:48:49.789Z,100961.16
2023-10-16T08:51:19.179Z,100967.22
2023-10-16T08:53:46.293Z,100965.41
2023-10-16T08:56:18.652Z,100956.19
2023-10-16T08:58:46.612Z,100958.97
2023-10-16T09:01:18.102Z,100957.09
2023-10-16T09:04:00.921Z,100955.41
2023-10-16T09:06:30.899Z,100959.75
2023-10-16T09:08:57.286Z,100956.16
2023-10-16T09:11:25.873Z,100956.28
2023-10-16T09:13:53.837Z,100962.31
2023-10-16T09:16:25.561Z,100949.81
2023-10-16T09:18:54.189Z,100959.44
2023-10-16T09:21:24.816Z,100959.38
2023-10-16T09:23:52.656Z,100952.34
2023-10-16T09:26:25.092Z,100952.25
2023-10-16T09:28:55.187Z,100955.75
2023-10-16T09:31:22.711Z,100945.00
2023-10-16T09:33:49.720Z,100945.59
2023-10-16T09:36:22.268Z,100954.13
2023-10-16T09:38:52.779Z,100940.00
2023-10-16T09:41:26.533Z,100948.41
2023-10-16T09:43:57.848Z,100946.19
2023-10-16T09:46:42.427Z,100942.34
2023-10-16T09:49:10.970Z,100942.13
2023-10-16T09:51:40.883Z,100940.44
2023-10-16T09:54:10.494Z,100931.84
2023-10-16T09:56:43.064Z,100928.28
2023-10-16T09:59:18.375Z,100920.41
2023-10-16T10:01:46.053Z,100925.75
2023-10-16T10:04:13.487Z,100925.00
2023-10-16T10:06:42.414Z,100926.69
2023-10-16T10:09:13.715Z,100920.25
2023-10-16T10:11:58.694Z,100910.03
2023-10-16T10:14:40.129Z,100928.38
2023-10-16T10:17:10.711Z,100930.13
2023-10-16T10:19:43.776Z,100924.25
2023-10-16T10:22:18.186Z,100918.47
2023-10-16T10:24:52.367Z,100913.22
2023-10-16T10:27:19.064Z,100912.72
2023-10-16T10:29:49.565Z,100910.84
2023-10-16T10:32:16.334Z,100900.31
2023-10-16T10:34:45.821Z,100902.09
2023-10-16T10:37:52.946Z,100897.56
2023-10-16T10:40:27.656Z,100887.44
2023-10-16T10:42:59.194Z,100879.16
2023-10-16T10:45:36.914Z,100887.81
2023-10-16T10:48:13.328Z,100881.13
2023-10-16T10:50:41.685Z,100871.25
2023-10-16T10:53:15.499Z,100863.13
2023-10-16T10:55:56.110Z,100869.03
2023-10-16T10:58:26.100Z,100860.38
2023-10-16T11:01:01.765Z,100856.72
2023-10-16T11:03:37.171Z,100854.66
2023-10-16T11:06:03.850Z,100846.94
2023-10-16T11:08:35.309Z,100841.41
2023-10-16T11:11:04.638Z,100841.66
2023-10-16T11:13:31.840Z,100834.34
2023-10-16T11:16:02.134Z,100836.78
2023-10-16T11:18:30.330Z,100833.22
2023-10-16T11:21:04.890Z,100826.97
2023-10-16T11:23:39.728Z,100829.41
2023-10-16T11:26:07.777Z,100820.44
2023-10-16T11:28:36.337Z,100821.69
2023-10-16T11:31:06.027Z,100814.09
2023-10-16T11:33:35.735Z,100810.38
2023-10-16T11:36:04.688Z,100805.00
2023-10-16T11:38:35.299Z,100808.75
2023-10-16T11:41:13.471Z,100794.56
2023-10-16T11:43:48.130Z,100803.78
2023-10-16T11:46:35.624Z,100793.41
2023-10-16T11:49:22.377Z,100792.78
2023-10-16T11:51:52.242Z,100790.25
2023-10-16T11:54:21.268Z,100781.59
2023-10-16T11:56:48.970Z,100773.22
2023-10-16T11:59:16.578Z,100778.09
2023-10-16T12:02:01.250Z,100779.97
2023-10-16T12:04:30.058Z,100775.00
2023-10-16T12:06:58.878Z,100770.97
2023-10-16T12:09:26.874Z,100765.94
2023-10-16T12:11:55.458Z,100757.19
2023-10-16T12:14:23.258Z,100751.81
2023-10-16T12:16:49.944Z,100752.00
2023-10-16T12:19:18.089Z,100749.25
2023-10-16T12:21:54.180Z,100743.59
2023-10-16T12:24:21.826Z,100749.25
2023-10-16T12:26:48.386Z,100742.31
2023-10-16T12:29:14.856Z,100744.28
2023-10-16T12:31:41.602Z,100735.81
2023-10-16T12:34:17.338Z,100740.53
2023-10-16T12:36:44.446Z,100740.75
2023-10-16T12:39:26.684Z,100731.03
2023-10-16T12:41:56.924Z,100724.84
2023-10-16T12:44:26.756Z,100725.56
2023-10-16T12:46:57.432Z,100717.41
2023-10-16T12:49:24.400Z,100722.00
2023-10-16T12:51:51.155Z,100721.38
2023-10-16T12:54:18.030Z,100715.13
2023-10-16T12:56:44.521Z,100712.06
2023-10-16T12:59:11.933Z,100717.44
2023-10-16T13:01:41.914Z,100711.88
2023-10-16T13:04:14.822Z,100701.84
2023-10-16T13:06:42.167Z,100697.44
2023-10-16T13:09:15.432Z,100705.72
2023-10-16T13:11:42.645Z,100698.34
2023-10-16T13:14:09.197Z,100684.47
2023-10-16T13:16:35.626Z,100696.84
2023-10-16T13:19:03.233Z,100684.16
2023-10-16T13:21:39.373Z,100690.22
2023-10-16T13:24:12.102Z,100686.75
2023-10-16T13:26:39.509Z,100682.69
2023-10-16T13:29:10.493Z,100683.00
2023-10-16T13:31:38.114Z,100677.84
2023-10-16T13:34:05.160Z,100681.91
2023-10-16T13:36:37.241Z,100690.38
2023-10-16T13:39:09.410Z,100686.44
2023-10-16T13:41:51.882Z,100684.56
2023-10-16T13:44:20.500Z,100684.16
2023-10-16T13:46:50.421Z,100680.06
2023-10-16T13:49:19.031Z,100678.75
2023-10-16T13:51:46.554Z,100680.94
2023-10-16T13:54:13.565Z,100672.13
2023-10-16T13:56:41.072Z,100680.63
2023-10-16T13:59:07.693Z,100678.50
2023-10-16T14:01:41.173Z,100680.19
2023-10-16T14:04:18.014Z,100667.50
2023-10-16T14:06:46.909Z,100669.72
2023-10-16T14:09:20.645Z,100662.75
2023-10-16T14:11:50.632Z,100666.94
2023-10-16T14:14:21.833Z,100664.53
2023-10-16T14:16:53.284Z,100661.91
2023-10-16T14:19:27.917Z,100657.94
2023-10-16T14:21:56.488Z,100654.53
2023-10-16T14:24:26.126Z,100649.16
2023-10-16T14:26:56.539Z,100655.47
2023-10-16T14:29:25.844Z,100652.97
2023-10-16T14:31:56.340Z,100658.56
2023-10-16T14:34:23.864Z,100655.03
2023-10-16T14:36:54.720Z,100655.13
2023-10-16T14:39:29.400Z,100651.38
2023-10-16T14:42:02.967Z,100647.69
2023-10-16T14:44:30.040Z,100639.66
2023-10-16T14:46:57.713Z,100644.56
2023-10-16T14:49:26.457Z,100637.50
2023-10-16T14:51:54.572Z,100634.81
2023-10-16T14:54:24.426Z,100638.72
2023-10-16T14:56:52.753Z,100635.66
2023-10-16T14:59:33.278Z,100631.53
2023-10-16T15:02:01.587Z,100630.91
2023-10-16T15:04:29.554Z,100627.75
2023-10-16T15:07:05.165Z,100634.16
2023-10-16T15:09:32.878Z,100632.63
2023-10-16T15:12:00.550Z,100622.09
2023-10-16T15:14:28.129Z,100628.13
2023-10-16T15:16:55.206Z,100630.00
2023-10-16T15:19:21.881Z,100632.19
2023-10-16T15:21:49.673Z,100627.59
2023-10-16T15:24:16.346Z,100629.06
2023-10-16T15:26:43.396Z,100628.91
2023-10-16T15:29:14.504Z,100630.84
2023-10-16T15:31:41.278Z,100636.38
2023-10-16T15:34:10.436Z,100627.13
2023-10-16T15:36:37.246Z,100623.91
2023-10-16T15:39:04.069Z,100623.72
2023-10-16T15:41:31.081Z,100627.31
2023-10-16T15:44:00.007Z,100627.66
2023-10-16T15:46:29.637Z,100620.94
2023-10-16T15:48:57.129Z,100624.28
2023-10-16T15:51:25.824Z,100626.94
2023-10-16T15:53:52.852Z,100627.09
2023-10-16T15:56:25.468Z,100617.41
2023-10-16T15:58:53.011Z,100618.44
2023-10-16T16:01:20.710Z,100611.06
2023-10-16T16:03:47.596Z,100614.72
2023-10-16T16:06:18.776Z,100609.09
2023-10-16T16:08:46.553Z,100611.19
2023-10-16T16:11:15.330Z,100614.47
2023-10-16T16:13:42.529Z,100611.06
2023-10-16T16:16:10.887Z,100608.31
2023-10-16T16:18:39.279Z,100614.28
2023-10-16T16:21:07.692Z,100614.31
2023-10-16T16:23:34.789Z,100607.81
2023-10-16T16:26:03.431Z,100610.47
2023-10-16T16:28:31.014Z,100608.63
2023-10-16T16:30:58.785Z,100609.94
2023-10-16T16:33:25.480Z,100613.28
2023-10-16T16:35:52.261Z,100610.16
2023-10-16T16:38:18.811Z,100610.25
2023-10-16T16:40:47.425Z,100603.09
2023-10-16T16:43:13.901Z,100614.84
2023-10-16T16:45:41.490Z,100614.78
2023-10-16T16:48:08.453Z,100622.91
2023-10-16T16:50:35.849Z,100619.50
2023-10-16T16:53:04.234Z,100624.25
2023-10-16T16:55:30.853Z,100618.72
2023-10-16T16:57:57.927Z,100620.47
2023-10-16T17:00:27.757Z,100625.81
2023-10-16T17:02:57.132Z,100629.63
2023-10-16T17:05:24.451Z,100624.16
2023-10-16T17:07:52.664Z,100624.03
2023-10-16T17:10:19.904Z,100621.53
2023-10-16T17:12:46.691Z,100625.31
2023-10-16T17:15:13.451Z,100627.03
2023-10-16T17:17:41.535Z,100622.56
2023-10-16T17:20:12.889Z,100631.78
2023-10-16T17:23:03.277Z,100626.06
2023-10-16T17:25:30.019Z,100639.34
2023-10-16T17:27:56.574Z,100645.56
2023-10-16T17:30:24.007Z,100648.09
2023-10-16T17:32:51.279Z,100646.44
2023-10-16T17:35:28.357Z,100650.44
2023-10-16T17:37:55.130Z,100654.84
2023-10-16T17:40:21.568Z,100639.94
2023-10-16T17:42:48.506Z,100647.84
2023-10-16T17:45:16.815Z,100652.59
2023-10-16T17:47:45.140Z,100639.22
2023-10-16T17:50:12.120Z,100631.13
2023-10-16T17:52:39.482Z,100628.72
2023-10-16T17:55:06.446Z,100635.59
2023-10-16T17:57:34.379Z,100629.59
2023-10-16T18:00:01.204Z,100633.16
2023-10-16T18:02:30.768Z,100634.19
2023-10-16T18:04:57.517Z,100643.88
2023-10-16T18:07:24.568Z,100641.81
2023-10-16T18:09:51.081Z,100649.06
2023-10-16T18:12:21.927Z,100656.16
2023-10-16T18:14:50.896Z,100656.47
2023-10-16T18:17:20.940Z,100659.75
2023-10-16T18:19:47.807Z,100665.31
2023-10-16T18:22:15.518Z,100667.06
2023-10-16T18:24:42.229Z,100660.41
2023-10-16T18:27:15.562Z,100655.84
2023-10-16T18:29:45.665Z,100661.63
2023-10-16T18:32:12.747Z,100654.56
2023-10-16T18:34:39.344Z,100651.91
2023-10-16T18:37:10.255Z,100651.13
2023-10-16T18:39:38.913Z,100638.94
2023-10-16T18:42:09.468Z,100641.66
2023-10-16T18:44:36.892Z,100645.34
2023-10-16T18:47:05.973Z,100638.16
2023-10-16T18:49:33.160Z,100631.19
2023-10-16T18:51:59.623Z,100637.41
2023-10-16T18:54:26.302Z,100644.34
2023-10-16T18:56:52.994Z,100651.38
2023-10-16T18:59:21.163Z,100645.19
2023-10-16T19:01:48.885Z,100645.09
2023-10-16T19:04:16.969Z,100648.44
2023-10-16T19:06:44.797Z,100637.63
2023-10-16T19:09:13.373Z,100644.72
2023-10-16T19:11:40.080Z,100639.53
2023-10-16T19:14:06.613Z,100641.22
2023-10-16T19:16:33.476Z,100630.41
2023-10-16T19:19:00.047Z,100635.03
2023-10-16T19:21:26.728Z,100639.44
2023-10-16T19:23:53.504Z,100638.66
2023-10-16T19:26:20.033Z,100637.06
2023-10-16T19:28:46.860Z,100631.78
2023-10-16T19:31:16.252Z,100634.41
2023-10-16T19:33:44.583Z,100632.53
2023-10-16T19:36:17.544Z,100633.41
2023-10-16T19:38:45.966Z,100648.38
2023-10-16T19:41:15.265Z,100638.50
2023-10-16T19:43:41.989Z,100642.91
2023-10-16T19:46:08.658Z,100641.16
2023-10-16T19:48:35.119Z,100646.50
2023-10-16T19:51:01.545Z,100646.66
2023-10-16T19:53:28.773Z,100650.88
2023-10-16T19:55:56.186Z,100647.38
2023-10-16T19:58:22.771Z,100647.25
2023-10-16T20:00:49.225Z,100640.22
2023-10-16T20:03:19.777Z,100631.31
2023-10-16T20:05:46.423Z,100635.88
2023-10-16T20:08:12.903Z,100634.91
2023-10-16T20:10:41.975Z,100630.50
2023-10-16T20:13:11.899Z,100644.47
2023-10-16T20:15:38.743Z,100633.03
2023-10-16T20:18:14.211Z,100626.97
2023-10-16T20:20:40.740Z,100630.50
2023-10-16T20:23:11.061Z,100633.19
2023-10-16T20:25:44.303Z,100621.66
2023-10-16T20:28:16.045Z,100637.38
2023-10-16T20:30:44.689Z,100640.22
2023-10-16T20:33:13.480Z,100647.97
2023-10-16T20:35:42.516Z,100647.97
2023-10-16T20:38:09.888Z,100657.41
2023-10-16T20:40:40.564Z,100658.06
2023-10-16T20:43:11.961Z,100652.72
2023-10-16T20:45:38.628Z,100652.91
2023-10-16T20:48:09.003Z,100642.66
2023-10-16T20:50:36.251Z,100640.00
2023-10-16T20:53:07.349Z,100640.41
2023-10-16T20:55:41.487Z,100636.97
2023-10-16T20:58:10.395Z,100638.97
2023-10-16T21:00:38.302Z,100627.72
2023-10-16T21:03:05.372Z,100641.81
2023-10-16T21:05:33.893Z,100637.44
2023-10-16T21:08:00.976Z,100634.91
2023-10-16T21:10:28.873Z,100634.91
2023-10-16T21:12:56.903Z,100635.88
2023-10-16T21:15:25.644Z,100628.81
2023-10-16T21:17:52.429Z,100635.16
2023-10-16T21:20:19.223Z,100637.59
2023-10-16T21:22:47.952Z,100637.75
2023-10-16T21:25:15.674Z,100634.25
2023-10-16T21:27:43.724Z,100629.03
2023-10-16T21:30:11.205Z,100632.50
2023-10-16T21:32:38.529Z,100634.19
2023-10-16T21:35:07.596Z,100635.84
2023-10-16T21:37:35.104Z,100631.81
2023-10-16T21:40:06.806Z,100624.81
2023-10-16T21:42:33.771Z,100616.00
2023-10-16T21:45:00.515Z,100625.72
2023-10-16T21:47:27.270Z,100624.91
2023-10-16T21:49:54.084Z,100616.19
2023-10-16T21:52:20.494Z,100625.81
2023-10-16T21:54:47.462Z,100624.91
2023-10-16T21:57:17.313Z,100625.06
2023-10-16T21:59:44.447Z,100625.63
2023-10-16T22:02:16.808Z,100626.53
2023-10-16T22:04:47.368Z,100622.09
2023-10-16T22:07:14.731Z,100615.91
2023-10-16T22:09:41.172Z,100609.75
2023-10-16T22:12:08.050Z,100607.03
2023-10-16T22:14:34.549Z,100605.34
2023-10-16T22:17:01.826Z,100607.22
2023-10-16T22:19:30.996Z,100616.75
2023-10-16T22:21:57.793Z,100613.41
2023-10-16T22:24:26.971Z,100617.91
2023-10-16T22:26:53.660Z,100621.59
2023-10-16T22:29:20.131Z,100627.75
2023-10-16T22:31:46.580Z,100617.25
2023-10-16T22:34:13.164Z,100611.31
2023-10-16T22:36:39.614Z,100615.63
2023-10-16T22:39:12.984Z,100621.06
2023-10-16T22:41:39.828Z,100614.88
2023-10-16T22:44:07.208Z,100600.69
2023-10-16T22:46:34.488Z,100604.19
2023-10-16T22:49:04.714Z,100604.19
2023-10-16T22:51:31.258Z,100596.25
2023-10-16T22:53:57.724Z,100594.56
2023-10-16T22:56:24.992Z,100598.31
2023-10-16T22:58:52.240Z,100596.75
2023-10-16T23:01:22.820Z,100602.03
2023-10-16T23:03:49.484Z,100600.16
2023-10-16T23:06:16.062Z,100599.88
2023-10-16T23:08:49.687Z,100592.84
2023-10-16T23:11:25.227Z,100587.47
2023-10-16T23:13:54.926Z,100583.22
2023-10-16T23:16:29.317Z,100594.75
2023-10-16T23:18:56.713Z,100578.84
2023-10-16T23:21:26.018Z,100577.88
2023-10-16T23:23:53.035Z,100562.97
2023-10-16T23:26:22.112Z,100563.97
2023-10-16T23:28:48.876Z,100560.41
2023-10-16T23:31:15.971Z,100560.25
2023-10-16T23:33:54.665Z,100572.44
2023-10-16T23:36:27.236Z,100572.59
2023-10-16T23:38:54.063Z,100569.16
2023-10-16T23:41:20.706Z,100563.91
2023-10-16T23:43:59.605Z,100563.91
2023-10-16T23:46:29.896Z,100558.66
2023-10-16T23:49:09.649Z,100552.63
2023-10-16T23:51:37.556Z,100549.06
2023-10-16T23:54:17.025Z,100545.56
2023-10-16T23:56:50.623Z,100537.78
2023-10-16T23:59:21.713Z,100545.81
